createdAt,value
2018-06-29T00:01:47.631Z,101538.39
2018-06-29T00:04:53.157Z,101534.84
2018-06-29T00:07:58.396Z,101529.85
2018-06-29T00:11:04.021Z,101532.27
2018-06-29T00:14:08.855Z,101521.77
2018-06-29T00:17:13.792Z,101525.75
2018-06-29T00:20:18.596Z,101527.70
2018-06-29T00:23:23.899Z,101525.91
2018-06-29T00:26:28.730Z,101523.14
2018-06-29T00:29:33.517Z,101524.62
2018-06-29T00:32:39.023Z,101528.01
2018-06-29T00:35:44.753Z,101524.00
2018-06-29T00:38:49.556Z,101525.94
2018-06-29T00:41:54.369Z,101524.91
2018-06-29T00:44:59.564Z,101523.48
2018-06-29T00:48:04.610Z,101525.80
2018-06-29T00:51:09.917Z,101528.11
2018-06-29T00:54:14.728Z,101523.11
2018-06-29T00:57:19.565Z,101525.91
2018-06-29T01:00:25.211Z,101516.19
2018-06-29T01:03:31.276Z,101519.48
2018-06-29T01:06:36.469Z,101518.36
2018-06-29T01:09:41.319Z,101523.44
2018-06-29T01:12:46.441Z,101521.08
2018-06-29T01:15:51.868Z,101513.12
2018-06-29T01:18:57.649Z,101505.59
2018-06-29T01:22:03.969Z,101505.77
2018-06-29T01:25:09.367Z,101497.72
2018-06-29T01:28:15.309Z,101496.75
2018-06-29T01:31:20.477Z,101489.53
2018-06-29T01:34:26.222Z,101494.42
2018-06-29T01:37:31.148Z,101494.66
2018-06-29T01:40:36.320Z,101495.75
2018-06-29T01:43:41.557Z,101490.00
2018-06-29T01:46:47.518Z,101487.56
2018-06-29T01:49:52.659Z,101488.28
2018-06-29T01:52:58.373Z,101493.25
2018-06-29T01:56:03.178Z,101485.91
2018-06-29T01:59:08.508Z,101486.27
2018-06-29T02:02:13.560Z,101479.97
2018-06-29T02:05:18.384Z,101474.48
2018-06-29T02:08:24.163Z,101475.56
2018-06-29T02:11:29.939Z,101477.58
2018-06-29T02:14:35.884Z,101467.00
2018-06-29T02:17:40.716Z,101473.25
2018-06-29T02:20:45.596Z,101469.55
2018-06-29T02:23:50.391Z,101461.55
2018-06-29T02:26:55.184Z,101461.09
2018-06-29T02:30:00.426Z,101456.69
2018-06-29T02:33:05.978Z,101458.13
2018-06-29T02:36:10.818Z,101454.78
2018-06-29T02:39:16.642Z,101456.87
2018-06-29T02:42:21.468Z,101456.63
2018-06-29T02:45:26.826Z,101447.59
2018-06-29T02:48:32.584Z,101449.12
2018-06-29T02:51:37.493Z,101444.72
2018-06-29T02:54:42.644Z,101451.09
2018-06-29T02:57:47.467Z,101459.17
2018-06-29T03:00:52.850Z,101447.72
2018-06-29T03:03:58.563Z,101454.17
2018-06-29T03:07:03.419Z,101446.64
2018-06-29T03:10:08.274Z,101442.09
2018-06-29T03:13:13.057Z,101442.26
2018-06-29T03:16:18.446Z,101447.47
2018-06-29T03:19:24.274Z,101441.09
2018-06-29T03:22:30.287Z,101444.30
2018-06-29T03:25:35.130Z,101437.67
2018-06-29T03:28:40.386Z,101429.88
2018-06-29T03:31:45.216Z,101433.42
2018-06-29T03:34:50.260Z,101435.26
2018-06-29T03:37:55.997Z,101435.26
2018-06-29T03:41:00.808Z,101435.80
2018-06-29T03:44:06.360Z,101438.38
2018-06-29T03:47:11.234Z,101435.05
2018-06-29T03:50:16.053Z,101432.00
2018-06-29T03:53:21.596Z,101431.70
2018-06-29T03:56:27.300Z,101428.21
2018-06-29T03:59:32.470Z,101421.52
2018-06-29T04:02:38.287Z,101419.84
2018-06-29T04:05:43.135Z,101419.63
2018-06-29T04:08:48.804Z,101422.12
2018-06-29T04:11:55.107Z,101416.51
2018-06-29T04:15:00.766Z,101414.84
2018-06-29T04:18:07.772Z,101421.52
2018-06-29T04:21:13.225Z,101419.71
2018-06-29T04:24:19.051Z,101420.09
2018-06-29T04:27:24.056Z,101426.17
2018-06-29T04:30:29.249Z,101426.92
2018-06-29T04:33:34.324Z,101423.64
2018-06-29T04:36:40.296Z,101421.22
2018-06-29T04:39:45.133Z,101414.61
2018-06-29T04:42:50.005Z,101414.23
2018-06-29T04:45:55.860Z,101416.64
2018-06-29T04:49:00.750Z,101417.27
2018-06-29T04:52:06.329Z,101413.23
2018-06-29T04:55:11.157Z,101405.94
2018-06-29T04:58:16.510Z,101407.27
2018-06-29T05:01:21.338Z,101395.89
2018-06-29T05:04:26.175Z,101409.77
2018-06-29T05:07:31.011Z,101403.45
2018-06-29T05:10:36.273Z,101406.16
2018-06-29T05:13:41.052Z,101401.06
2018-06-29T05:16:46.897Z,101399.46
2018-06-29T05:19:51.966Z,101399.06
2018-06-29T05:22:56.814Z,101395.80
2018-06-29T05:26:02.157Z,101394.62
2018-06-29T05:29:07.342Z,101390.97
2018-06-29T05:32:13.312Z,101388.95
2018-06-29T05:35:18.145Z,101394.73
2018-06-29T05:38:23.605Z,101389.30
2018-06-29T05:41:29.665Z,101394.98
2018-06-29T05:44:35.177Z,101388.25
2018-06-29T05:47:40.007Z,101391.86
2018-06-29T05:50:45.466Z,101391.53
2018-06-29T05:53:50.277Z,101384.80
2018-06-29T05:56:55.612Z,101384.84
2018-06-29T06:00:00.654Z,101384.94
2018-06-29T06:03:07.023Z,101388.48
2018-06-29T06:06:12.722Z,101380.45
2018-06-29T06:09:18.877Z,101378.82
2018-06-29T06:12:24.609Z,101384.09
2018-06-29T06:15:29.426Z,101374.60
2018-06-29T06:18:35.296Z,101376.39
2018-06-29T06:21:40.119Z,101380.30
2018-06-29T06:24:45.505Z,101374.78
2018-06-29T06:27:50.640Z,101370.98
2018-06-29T06:30:57.294Z,101376.55
2018-06-29T06:34:02.658Z,101376.10
2018-06-29T06:37:08.633Z,101373.89
2018-06-29T06:40:14.312Z,101364.08
2018-06-29T06:43:20.174Z,101372.23
2018-06-29T06:46:25.669Z,101373.44
2018-06-29T06:49:30.504Z,101367.40
2018-06-29T06:52:37.217Z,101364.44
2018-06-29T06:55:42.649Z,101352.22
2018-06-29T06:58:47.481Z,101355.61
2018-06-29T07:01:52.325Z,101355.50
2018-06-29T07:04:57.399Z,101353.73
2018-06-29T07:08:02.283Z,101353.26
2018-06-29T07:11:07.161Z,101348.42
2018-06-29T07:14:12.492Z,101348.78
2018-06-29T07:17:17.325Z,101342.06
2018-06-29T07:20:23.241Z,101333.33
2018-06-29T07:23:28.797Z,101332.23
2018-06-29T07:26:33.706Z,101329.03
2018-06-29T07:29:38.828Z,101330.20
2018-06-29T07:32:43.765Z,101334.31
2018-06-29T07:35:49.688Z,101331.11
2018-06-29T07:38:55.839Z,101330.86
2018-06-29T07:42:01.132Z,101329.41
2018-06-29T07:45:06.049Z,101329.15
2018-06-29T07:48:11.922Z,101332.31
2018-06-29T07:51:17.796Z,101329.91
2018-06-29T07:54:22.864Z,101329.64
2018-06-29T07:57:28.046Z,101336.22
2018-06-29T08:00:33.757Z,101324.34
2018-06-29T08:03:39.517Z,101327.02
2018-06-29T08:06:44.590Z,101331.34
2018-06-29T08:09:50.336Z,101322.80
2018-06-29T08:12:56.213Z,101322.38
2018-06-29T08:16:01.001Z,101312.38
2018-06-29T08:19:06.790Z,101313.24
2018-06-29T08:22:12.441Z,101318.02
2018-06-29T08:25:18.045Z,101317.57
2018-06-29T08:28:24.058Z,101315.70
2018-06-29T08:31:29.211Z,101323.80
2018-06-29T08:34:34.866Z,101332.02
2018-06-29T08:37:40.218Z,101332.85
2018-06-29T08:40:46.484Z,101328.22
2018-06-29T08:43:51.814Z,101326.80
2018-06-29T08:46:57.806Z,101326.22
2018-06-29T08:50:02.678Z,101326.78
2018-06-29T08:53:08.114Z,101319.53
2018-06-29T08:56:12.963Z,101319.98
2018-06-29T08:59:17.796Z,101311.98
2018-06-29T09:02:23.045Z,101311.36
2018-06-29T09:05:28.881Z,101311.19
2018-06-29T09:08:33.710Z,101309.08
2018-06-29T09:11:39.652Z,101311.41
2018-06-29T09:14:45.192Z,101318.33
2018-06-29T09:17:50.942Z,101325.00
2018-06-29T09:20:55.804Z,101319.55
2018-06-29T09:24:01.145Z,101314.58
2018-06-29T09:27:06.206Z,101313.52
2018-06-29T09:30:11.794Z,101313.28
2018-06-29T09:33:16.953Z,101315.37
2018-06-29T09:36:22.794Z,101315.16
2018-06-29T09:39:27.748Z,101321.25
2018-06-29T09:42:32.549Z,101320.85
2018-06-29T09:45:37.568Z,101316.45
2018-06-29T09:48:43.264Z,101320.25
2018-06-29T09:51:49.106Z,101321.06
2018-06-29T09:54:55.409Z,101316.41
2018-06-29T09:58:00.673Z,101309.94
2018-06-29T10:01:05.572Z,101316.53
2018-06-29T10:04:10.749Z,101300.44
2018-06-29T10:07:15.629Z,101301.14
2018-06-29T10:10:21.465Z,101309.98
2018-06-29T10:13:26.304Z,101302.87
2018-06-29T10:16:31.577Z,101303.20
2018-06-29T10:19:36.581Z,101299.34
2018-06-29T10:22:41.566Z,101301.63
2018-06-29T10:25:47.229Z,101289.79
2018-06-29T10:28:52.438Z,101290.98
2018-06-29T10:31:58.233Z,101281.96
2018-06-29T10:35:03.049Z,101283.42
2018-06-29T10:38:08.642Z,101276.38
2018-06-29T10:41:14.408Z,101283.61
2018-06-29T10:44:20.263Z,101280.35
2018-06-29T10:47:25.112Z,101268.13
2018-06-29T10:50:29.909Z,101270.00
2018-06-29T10:53:35.889Z,101270.59
2018-06-29T10:56:41.625Z,101262.48
2018-06-29T10:59:46.449Z,101266.78
2018-06-29T11:02:51.701Z,101271.27
2018-06-29T11:09:00.030Z,101272.97
2018-06-29T11:12:05.711Z,101255.52
2018-06-29T11:15:11.677Z,101260.95
2018-06-29T11:18:17.743Z,101266.44
2018-06-29T11:21:23.717Z,101260.91
2018-06-29T11:24:28.550Z,101252.44
2018-06-29T11:27:33.404Z,101250.02
2018-06-29T11:30:38.743Z,101255.50
2018-06-29T11:33:43.545Z,101242.88
2018-06-29T11:36:49.160Z,101258.87
2018-06-29T11:39:54.138Z,101254.45
2018-06-29T11:42:58.964Z,101257.47
2018-06-29T11:46:04.265Z,101258.11
2018-06-29T11:49:09.696Z,101258.45
2018-06-29T11:52:15.135Z,101259.61
2018-06-29T11:55:20.333Z,101264.37
2018-06-29T11:58:26.077Z,101256.98
2018-06-29T12:01:32.217Z,101249.74
2018-06-29T12:04:37.631Z,101250.56
2018-06-29T12:07:43.190Z,101245.16
2018-06-29T12:10:48.063Z,101254.37
2018-06-29T12:13:53.265Z,101254.05
2018-06-29T12:16:58.890Z,101253.10
2018-06-29T12:20:04.573Z,101249.83
2018-06-29T12:23:09.445Z,101254.15
2018-06-29T12:26:14.764Z,101252.52
2018-06-29T12:29:20.641Z,101253.55
2018-06-29T12:32:25.872Z,101258.66
2018-06-29T12:35:30.917Z,101253.11
2018-06-29T12:38:36.160Z,101254.11
2018-06-29T12:41:41.340Z,101247.70
2018-06-29T12:44:47.188Z,101246.23
2018-06-29T12:47:52.320Z,101246.78
2018-06-29T12:50:57.464Z,101238.45
2018-06-29T12:54:03.222Z,101237.80
2018-06-29T12:57:08.850Z,101238.46
2018-06-29T13:00:14.023Z,101230.78
2018-06-29T13:03:20.086Z,101248.08
2018-06-29T13:06:25.756Z,101236.57
2018-06-29T13:09:30.904Z,101238.88
2018-06-29T13:12:35.765Z,101239.23
2018-06-29T13:15:41.586Z,101236.31
2018-06-29T13:18:47.062Z,101223.33
2018-06-29T13:21:51.891Z,101224.97
2018-06-29T13:24:57.442Z,101231.38
2018-06-29T13:28:03.331Z,101228.26
2018-06-29T13:31:09.200Z,101222.83
2018-06-29T13:34:15.039Z,101222.20
2018-06-29T13:37:20.519Z,101220.72
2018-06-29T13:40:25.346Z,101224.17
2018-06-29T13:43:30.420Z,101232.77
2018-06-29T13:46:35.212Z,101220.91
2018-06-29T13:49:41.074Z,101215.98
2018-06-29T13:52:45.933Z,101231.11
2018-06-29T13:55:52.513Z,101228.48
2018-06-29T13:58:57.529Z,101219.27
2018-06-29T14:02:02.374Z,101211.72
2018-06-29T14:05:07.185Z,101224.06
2018-06-29T14:08:11.992Z,101215.17
2018-06-29T14:11:17.660Z,101216.16
2018-06-29T14:14:23.318Z,101213.03
2018-06-29T14:17:28.493Z,101214.84
2018-06-29T14:20:33.366Z,101221.75
2018-06-29T14:23:38.237Z,101213.39
2018-06-29T14:26:43.267Z,101221.75
2018-06-29T14:29:48.575Z,101232.28
2018-06-29T14:32:54.845Z,101228.66
2018-06-29T14:36:00.018Z,101219.62
2018-06-29T14:39:07.833Z,101229.81
2018-06-29T14:42:13.263Z,101220.27
2018-06-29T14:45:18.084Z,101223.23
2018-06-29T14:48:23.389Z,101217.16
2018-06-29T14:51:28.425Z,101222.09
2018-06-29T14:54:34.219Z,101226.86
2018-06-29T14:57:39.057Z,101224.06
2018-06-29T15:00:44.637Z,101224.55
2018-06-29T15:03:49.945Z,101212.87
2018-06-29T15:06:54.791Z,101216.16
2018-06-29T15:09:59.607Z,101228.50
2018-06-29T15:13:05.363Z,101217.64
2018-06-29T15:16:10.635Z,101222.58
2018-06-29T15:19:15.877Z,101216.17
2018-06-29T15:22:20.686Z,101216.49
2018-06-29T15:25:26.404Z,101220.27
2018-06-29T15:28:32.330Z,101222.58
2018-06-29T15:31:37.582Z,101226.20
2018-06-29T15:34:43.781Z,101212.70
2018-06-29T15:37:48.645Z,101212.87
2018-06-29T15:40:54.481Z,101224.23
2018-06-29T15:44:00.061Z,101218.97
2018-06-29T15:47:06.191Z,101220.09
2018-06-29T15:50:11.016Z,101218.61
2018-06-29T15:53:16.874Z,101229.14
2018-06-29T15:56:22.056Z,101227.98
2018-06-29T15:59:27.964Z,101225.16
2018-06-29T16:02:34.688Z,101219.73
2018-06-29T16:05:40.336Z,101228.12
2018-06-29T16:08:45.849Z,101233.36
2018-06-29T16:11:50.693Z,101238.13
2018-06-29T16:14:56.060Z,101235.48
2018-06-29T16:18:00.830Z,101233.45
2018-06-29T16:21:05.636Z,101234.56
2018-06-29T16:24:11.183Z,101230.78
2018-06-29T16:27:16.044Z,101224.48
2018-06-29T16:30:21.295Z,101227.61
2018-06-29T16:33:26.907Z,101231.18
2018-06-29T16:36:32.062Z,101223.61
2018-06-29T16:39:37.650Z,101229.84
2018-06-29T16:42:43.508Z,101226.36
2018-06-29T16:45:48.649Z,101225.52
2018-06-29T16:48:53.972Z,101220.04
2018-06-29T16:51:58.790Z,101212.43
2018-06-29T16:55:04.283Z,101216.17
2018-06-29T16:58:11.058Z,101227.00
2018-06-29T17:01:15.903Z,101224.33
2018-06-29T17:04:21.543Z,101229.39
2018-06-29T17:07:27.388Z,101227.20
2018-06-29T17:10:32.189Z,101222.58
2018-06-29T17:13:37.437Z,101224.49
2018-06-29T17:16:42.245Z,101218.88
2018-06-29T17:19:48.205Z,101215.70
2018-06-29T17:22:53.224Z,101226.62
2018-06-29T17:25:58.305Z,101220.77
2018-06-29T17:29:05.216Z,101222.95
2018-06-29T17:32:10.199Z,101225.67
2018-06-29T17:35:15.001Z,101226.75
2018-06-29T17:38:20.133Z,101228.30
2018-06-29T17:41:24.962Z,101230.03
2018-06-29T17:44:30.189Z,101226.64
2018-06-29T17:47:35.109Z,101233.41
2018-06-29T17:50:40.813Z,101224.91
2018-06-29T17:53:46.692Z,101224.91
2018-06-29T17:56:51.666Z,101234.28
2018-06-29T17:59:56.994Z,101233.19
2018-06-29T18:03:01.853Z,101238.65
2018-06-29T18:06:08.157Z,101235.11
2018-06-29T18:09:12.997Z,101237.47
2018-06-29T18:12:18.152Z,101241.27
2018-06-29T18:15:23.800Z,101239.86
2018-06-29T18:18:29.572Z,101238.76
2018-06-29T18:21:35.081Z,101247.95
2018-06-29T18:24:40.962Z,101246.39
2018-06-29T18:27:46.802Z,101247.77
2018-06-29T18:30:52.353Z,101249.16
2018-06-29T18:33:58.461Z,101252.31
2018-06-29T18:37:03.526Z,101254.45
2018-06-29T18:40:08.906Z,101254.67
2018-06-29T18:43:14.041Z,101259.27
2018-06-29T18:46:19.853Z,101264.09
2018-06-29T18:49:25.029Z,101260.36
2018-06-29T18:52:30.081Z,101264.95
2018-06-29T18:55:35.224Z,101268.40
2018-06-29T18:58:42.389Z,101273.16
2018-06-29T19:01:48.844Z,101275.02
2018-06-29T19:04:53.706Z,101268.44
2018-06-29T19:07:58.957Z,101276.45
2018-06-29T19:11:04.733Z,101277.34
2018-06-29T19:14:10.185Z,101281.09
2018-06-29T19:17:15.030Z,101278.77
2018-06-29T19:20:20.218Z,101284.41
2018-06-29T19:23:25.029Z,101277.07
2018-06-29T19:26:30.197Z,101288.51
2018-06-29T19:29:35.043Z,101286.42
2018-06-29T19:32:40.758Z,101290.73
2018-06-29T19:35:46.645Z,101288.75
2018-06-29T19:38:51.491Z,101296.89
2018-06-29T19:41:56.501Z,101292.17
2018-06-29T19:45:01.857Z,101298.01
2018-06-29T19:48:06.722Z,101304.70
2018-06-29T19:51:11.920Z,101309.15
2018-06-29T19:54:17.665Z,101307.98
2018-06-29T19:57:22.524Z,101310.72
2018-06-29T20:00:27.970Z,101316.32
2018-06-29T20:03:32.778Z,101311.23
2018-06-29T20:06:37.602Z,101316.92
2018-06-29T20:09:43.000Z,101326.30
2018-06-29T20:12:47.830Z,101319.90
2018-06-29T20:15:52.651Z,101323.70
2018-06-29T20:18:59.209Z,101323.38
2018-06-29T20:22:04.018Z,101329.17
2018-06-29T20:25:09.698Z,101327.53
2018-06-29T20:28:14.506Z,101324.45
2018-06-29T20:31:20.397Z,101324.20
2018-06-29T20:34:25.221Z,101325.97
2018-06-29T20:37:30.933Z,101323.94
2018-06-29T20:40:36.676Z,101323.92
2018-06-29T20:43:41.509Z,101320.94
2018-06-29T20:46:46.853Z,101319.84
2018-06-29T20:49:51.660Z,101320.44
2018-06-29T20:52:56.493Z,101324.44
2018-06-29T20:56:02.093Z,101325.23
2018-06-29T20:59:07.853Z,101330.44
2018-06-29T21:02:13.466Z,101324.25
2018-06-29T21:05:18.325Z,101332.29
2018-06-29T21:08:23.578Z,101339.11
2018-06-29T21:11:30.369Z,101340.16
2018-06-29T21:14:36.081Z,101342.73
2018-06-29T21:17:41.289Z,101345.67
2018-06-29T21:20:48.338Z,101353.08
2018-06-29T21:23:54.178Z,101353.11
2018-06-29T21:26:59.047Z,101359.13
2018-06-29T21:30:05.101Z,101361.67
2018-06-29T21:33:10.265Z,101361.91
2018-06-29T21:36:15.789Z,101359.94
2018-06-29T21:39:20.602Z,101359.81
2018-06-29T21:42:25.956Z,101364.70
2018-06-29T21:45:30.813Z,101370.48
2018-06-29T21:48:36.197Z,101379.92
2018-06-29T21:51:41.366Z,101374.19
2018-06-29T21:54:46.322Z,101374.45
2018-06-29T21:57:51.173Z,101377.02
2018-06-29T22:00:56.049Z,101373.78
2018-06-29T22:04:00.879Z,101382.37
2018-06-29T22:07:06.447Z,101389.81
2018-06-29T22:10:12.461Z,101387.42
2018-06-29T22:13:17.301Z,101382.99
2018-06-29T22:16:22.171Z,101389.34
2018-06-29T22:19:28.016Z,101392.87
2018-06-29T22:22:33.240Z,101384.94
2018-06-29T22:25:38.440Z,101389.59
2018-06-29T22:28:44.246Z,101390.73
2018-06-29T22:31:49.392Z,101391.12
2018-06-29T22:34:55.175Z,101394.77
2018-06-29T22:38:01.012Z,101395.19
2018-06-29T22:41:06.505Z,101402.06
2018-06-29T22:44:12.457Z,101405.34
2018-06-29T22:47:18.437Z,101401.46
2018-06-29T22:50:24.224Z,101403.70
2018-06-29T22:53:30.092Z,101410.93
2018-06-29T22:56:36.128Z,101408.74
2018-06-29T22:59:41.234Z,101411.72
2018-06-29T23:02:46.062Z,101411.30
2018-06-29T23:05:51.526Z,101415.92
2018-06-29T23:08:56.341Z,101420.39
2018-06-29T23:12:01.622Z,101419.95
2018-06-29T23:15:06.728Z,101415.30
2018-06-29T23:18:11.821Z,101420.06
2018-06-29T23:21:17.221Z,101420.53
2018-06-29T23:24:22.613Z,101426.45
2018-06-29T23:27:28.085Z,101423.30
2018-06-29T23:30:33.841Z,101427.34
2018-06-29T23:33:39.298Z,101421.72
2018-06-29T23:36:46.488Z,101425.15
2018-06-29T23:39:51.937Z,101414.61
2018-06-29T23:42:57.045Z,101419.41
2018-06-29T23:46:01.878Z,101421.64
2018-06-29T23:49:07.632Z,101421.56
2018-06-29T23:52:13.749Z,101425.71
2018-06-29T23:55:19.901Z,101429.79
2018-06-29T23:58:25.021Z,101426.36
